Time;durP1;ratioP1;P1;durP2;ratioP2;P2;SDS_P1;SDS_P2;PMS_P1;PMS_P2;Temp;Humidity;BMP_temperature;BMP_pressure;BME280_temperature;BME280_humidity;BME280_pressure;Samples;Min_cycle;Max_cycle;Signal;HPM_P1;HPM_P2
2022/05/06 00:01:54;;;;;;;23.27;16.15;;;;;;;;;;5072242;28;20491;-79
2022/05/06 00:04:21;;;;;;;27.83;17.13;;;;;;;;;;5088550;28;20040;-79
2022/05/06 00:06:47;;;;;;;25.95;17.40;;;;;;;;;;5087290;28;20032;-79
2022/05/06 00:09:13;;;;;;;27.38;17.15;;;;;;;;;;5068009;28;20168;-79
2022/05/06 00:11:40;;;;;;;26.83;16.30;;;;;;;;;;5071695;28;20039;-79
2022/05/06 00:14:06;;;;;;;24.20;16.90;;;;;;;;;;5071716;28;20040;-79
2022/05/06 00:16:32;;;;;;;24.60;16.35;;;;;;;;;;5067993;28;20044;-79
2022/05/06 00:18:58;;;;;;;28.45;16.77;;;;;;;;;;5088972;28;20392;-80
2022/05/06 00:21:24;;;;;;;26.67;17.85;;;;;;;;;;5088482;28;20040;-80
2022/05/06 00:23:50;;;;;;;24.85;17.52;;;;;;;;;;5088311;28;20040;-79
2022/05/06 00:26:17;;;;;;;26.95;17.50;;;;;;;;;;5088818;28;20048;-80
2022/05/06 00:28:43;;;;;;;25.38;17.10;;;;;;;;;;5088353;28;20097;-80
2022/05/06 00:31:09;;;;;;;30.75;18.48;;;;;;;;;;5084820;28;20067;-79
2022/05/06 00:33:35;;;;;;;26.13;18.08;;;;;;;;;;5088454;28;20515;-79
2022/05/06 00:36:03;;;;;;;26.65;17.23;;;;;;;;;;5071206;28;20052;-80
2022/05/06 00:38:30;;;;;;;25.77;17.50;;;;;;;;;;5071262;28;20040;-80
2022/05/06 00:40:56;;;;;;;27.67;17.25;;;;;;;;;;5071273;28;20043;-80
2022/05/06 00:43:25;;;;;;;28.27;17.20;;;;;;;;;;5088569;28;20403;-80
2022/05/06 00:45:55;;;;;;;27.27;17.27;;;;;;;;;;5071633;28;20027;-80
2022/05/06 00:48:26;;;;;;;25.75;18.75;;;;;;;;;;5071154;28;20043;-80
2022/05/06 00:50:52;;;;;;;32.00;18.73;;;;;;;;;;5071249;28;20032;-80
2022/05/06 00:53:19;;;;;;;29.35;19.38;;;;;;;;;;5073054;28;20047;-80
2022/05/06 00:55:45;;;;;;;29.50;19.17;;;;;;;;;;5071185;28;20471;-80
2022/05/06 00:58:11;;;;;;;26.05;19.13;;;;;;;;;;5071476;28;20514;-80
2022/05/06 01:00:38;;;;;;;28.20;18.40;;;;;;;;;;5087927;28;20433;-80
2022/05/06 01:03:04;;;;;;;29.92;18.45;;;;;;;;;;5071464;28;20044;-80
2022/05/06 01:05:31;;;;;;;27.42;18.50;;;;;;;;;;5087675;28;20551;-80
2022/05/06 01:07:58;;;;;;;29.30;18.40;;;;;;;;;;5087944;28;20068;-80
2022/05/06 01:10:24;;;;;;;24.67;17.25;;;;;;;;;;5087081;28;20827;-80
2022/05/06 01:12:51;;;;;;;26.67;19.33;;;;;;;;;;5074035;28;20040;-80
2022/05/06 01:15:20;;;;;;;26.98;17.98;;;;;;;;;;5071054;28;20199;-80
2022/05/06 01:17:47;;;;;;;28.55;17.63;;;;;;;;;;5087600;28;20119;-80
2022/05/06 01:20:16;;;;;;;28.92;18.85;;;;;;;;;;5084120;28;20098;-80
2022/05/06 01:22:47;;;;;;;26.67;17.65;;;;;;;;;;5070958;28;20047;-80
2022/05/06 01:25:13;;;;;;;26.42;18.35;;;;;;;;;;5088191;28;20048;-80
2022/05/06 01:27:42;;;;;;;26.15;17.55;;;;;;;;;;5088999;28;20488;-80
2022/05/06 01:30:11;;;;;;;26.38;17.60;;;;;;;;;;5074717;28;20096;-80
2022/05/06 01:32:37;;;;;;;25.50;18.02;;;;;;;;;;5091358;28;20040;-80
2022/05/06 01:35:04;;;;;;;26.92;17.95;;;;;;;;;;5074239;28;20056;-80
2022/05/06 01:37:31;;;;;;;24.98;17.00;;;;;;;;;;5075178;28;20495;-80
2022/05/06 01:39:59;;;;;;;28.88;18.65;;;;;;;;;;5074273;28;20105;-80
2022/05/06 01:42:26;;;;;;;25.20;17.13;;;;;;;;;;5091408;28;20040;-80
2022/05/06 01:44:53;;;;;;;27.17;17.55;;;;;;;;;;5091525;28;20093;-80
2022/05/06 01:47:23;;;;;;;24.70;16.63;;;;;;;;;;5091166;28;20408;-80
2022/05/06 01:49:56;;;;;;;26.05;17.70;;;;;;;;;;5090899;28;20129;-80
2022/05/06 01:52:25;;;;;;;30.50;18.98;;;;;;;;;;5074044;28;20036;-80
2022/05/06 01:54:51;;;;;;;26.42;18.08;;;;;;;;;;5091301;28;20043;-80
2022/05/06 01:57:17;;;;;;;25.60;17.20;;;;;;;;;;5073815;28;20044;-80
2022/05/06 01:59:43;;;;;;;26.08;17.83;;;;;;;;;;5091050;28;20040;-80
2022/05/06 02:02:10;;;;;;;25.70;17.58;;;;;;;;;;5071506;28;20032;-80
2022/05/06 02:07:21;;;;;;;25.33;17.23;;;;;;;;;;5086567;28;20044;-80
2022/05/06 02:09:47;;;;;;;29.50;18.20;;;;;;;;;;5090449;28;20036;-80
2022/05/06 02:12:20;;;;;;;25.05;16.58;;;;;;;;;;5090669;28;20047;-80
2022/05/06 02:14:46;;;;;;;25.65;16.58;;;;;;;;;;5090714;28;20436;-80
2022/05/06 02:17:12;;;;;;;30.92;19.63;;;;;;;;;;5071873;28;20039;-80
2022/05/06 02:19:38;;;;;;;28.25;19.58;;;;;;;;;;5090562;28;20117;-80
2022/05/06 02:22:05;;;;;;;31.33;20.17;;;;;;;;;;5090703;28;20051;-80
2022/05/06 02:24:31;;;;;;;30.23;20.60;;;;;;;;;;5090211;28;20040;-80
2022/05/06 02:26:57;;;;;;;29.70;21.23;;;;;;;;;;5090061;28;20040;-80
2022/05/06 02:29:23;;;;;;;33.10;21.05;;;;;;;;;;5073682;28;20397;-80
2022/05/06 02:34:34;;;;;;;28.98;19.20;;;;;;;;;;5090393;28;20051;-79
2022/05/06 02:37:01;;;;;;;28.67;18.77;;;;;;;;;;5090300;28;20573;-79
2022/05/06 02:39:27;;;;;;;26.67;18.00;;;;;;;;;;5072124;28;20043;-80
2022/05/06 02:41:53;;;;;;;25.38;17.30;;;;;;;;;;5073761;28;20043;-80
2022/05/06 02:44:19;;;;;;;24.92;16.67;;;;;;;;;;5089902;28;20055;-80
2022/05/06 02:46:45;;;;;;;27.73;17.60;;;;;;;;;;5085743;28;20039;-80
2022/05/06 02:49:11;;;;;;;25.70;17.58;;;;;;;;;;5073901;28;20032;-79
2022/05/06 02:51:37;;;;;;;29.70;17.80;;;;;;;;;;5072944;28;20119;-80
2022/05/06 02:54:05;;;;;;;29.63;19.88;;;;;;;;;;5086702;28;20443;-80
2022/05/06 02:56:32;;;;;;;30.52;18.75;;;;;;;;;;5074096;28;20044;-79
2022/05/06 02:58:58;;;;;;;31.98;19.48;;;;;;;;;;5052509;28;20098;-80
2022/05/06 03:01:24;;;;;;;28.95;19.65;;;;;;;;;;5060217;28;20507;-80
2022/05/06 03:03:51;;;;;;;34.08;19.58;;;;;;;;;;5089113;28;20036;-80
2022/05/06 03:06:18;;;;;;;32.22;20.35;;;;;;;;;;5089447;28;20121;-80
2022/05/06 03:08:44;;;;;;;32.13;20.88;;;;;;;;;;5072434;28;20040;-79
2022/05/06 03:11:10;;;;;;;31.63;21.05;;;;;;;;;;5089330;28;20040;-79
2022/05/06 03:13:36;;;;;;;32.28;22.60;;;;;;;;;;5085894;28;20044;-79
2022/05/06 03:16:02;;;;;;;35.55;22.38;;;;;;;;;;5089350;28;20036;-79
2022/05/06 03:18:28;;;;;;;32.67;21.88;;;;;;;;;;5088987;28;20075;-80
2022/05/06 03:20:55;;;;;;;36.40;22.80;;;;;;;;;;5088387;28;20069;-79
2022/05/06 03:23:21;;;;;;;39.20;24.40;;;;;;;;;;5079045;28;20032;-80
2022/05/06 03:25:47;;;;;;;37.13;23.55;;;;;;;;;;5068895;28;20550;-80
2022/05/06 03:28:14;;;;;;;33.72;22.08;;;;;;;;;;5072316;28;20044;-80
2022/05/06 03:30:45;;;;;;;34.33;22.88;;;;;;;;;;5089082;28;20078;-79
2022/05/06 03:33:13;;;;;;;32.30;22.33;;;;;;;;;;5071311;28;20036;-80
2022/05/06 03:35:39;;;;;;;35.70;22.25;;;;;;;;;;5087184;28;20464;-79
2022/05/06 03:38:06;;;;;;;35.15;23.30;;;;;;;;;;5092372;28;20398;-80
2022/05/06 03:40:35;;;;;;;39.67;24.50;;;;;;;;;;5075791;28;20038;-79
2022/05/06 03:43:02;;;;;;;34.80;22.67;;;;;;;;;;5090004;28;20043;-79
2022/05/06 03:45:28;;;;;;;34.83;23.42;;;;;;;;;;5074338;28;20513;-79
2022/05/06 03:47:54;;;;;;;37.28;23.45;;;;;;;;;;5091834;28;20050;-79
2022/05/06 03:53:06;;;;;;;32.00;22.33;;;;;;;;;;5091672;28;20044;-79
2022/05/06 03:55:33;;;;;;;33.80;22.83;;;;;;;;;;5091732;28;20035;-78
2022/05/06 03:57:59;;;;;;;32.72;22.70;;;;;;;;;;5075020;28;20050;-77
2022/05/06 04:00:26;;;;;;;38.45;23.77;;;;;;;;;;5091767;28;20491;-79
2022/05/06 04:02:53;;;;;;;34.10;22.83;;;;;;;;;;5074547;28;20126;-79
2022/05/06 04:05:19;;;;;;;39.28;26.23;;;;;;;;;;5091503;28;20526;-78
2022/05/06 04:07:45;;;;;;;39.58;23.38;;;;;;;;;;5091490;28;20036;-78
2022/05/06 04:10:11;;;;;;;35.75;24.30;;;;;;;;;;5072475;28;20036;-78
2022/05/06 04:12:38;;;;;;;39.65;26.15;;;;;;;;;;5099336;28;20034;-79
2022/05/06 04:15:06;;;;;;;43.13;26.63;;;;;;;;;;5091462;28;20063;-79
2022/05/06 04:17:32;;;;;;;35.97;23.95;;;;;;;;;;5091236;28;20067;-79
2022/05/06 04:25:28;;;;;;;62.05;34.25;;;;;;;;;;5090795;28;20043;-79
2022/05/06 04:27:55;;;;;;;64.82;31.98;;;;;;;;;;5074368;28;20095;-79
2022/05/06 04:30:21;;;;;;;54.53;29.95;;;;;;;;;;5091523;28;20519;-79
2022/05/06 04:32:47;;;;;;;75.72;36.95;;;;;;;;;;5074040;28;20039;-79
2022/05/06 04:35:15;;;;;;;67.97;36.50;;;;;;;;;;5090776;28;20101;-80
2022/05/06 04:37:42;;;;;;;71.43;36.33;;;;;;;;;;5074254;28;20123;-79
2022/05/06 04:40:09;;;;;;;111.43;40.72;;;;;;;;;;5088806;28;20040;-80
2022/05/06 04:42:35;;;;;;;70.10;37.15;;;;;;;;;;5072522;28;20124;-80
2022/05/06 04:45:01;;;;;;;54.00;30.88;;;;;;;;;;5073899;28;20046;-80
2022/05/06 04:47:27;;;;;;;50.22;30.73;;;;;;;;;;5069902;28;20036;-79
2022/05/06 04:49:53;;;;;;;55.45;33.15;;;;;;;;;;5088798;28;20036;-79
2022/05/06 04:52:20;;;;;;;51.45;31.00;;;;;;;;;;5084833;28;20045;-79
2022/05/06 04:54:47;;;;;;;54.90;31.05;;;;;;;;;;5074250;28;20551;-79
2022/05/06 04:57:13;;;;;;;64.65;35.03;;;;;;;;;;5073920;28;20375;-79
2022/05/06 04:59:39;;;;;;;59.65;32.97;;;;;;;;;;5090702;28;20038;-79
2022/05/06 05:02:05;;;;;;;54.92;32.47;;;;;;;;;;5092035;28;20035;-79
2022/05/06 05:04:31;;;;;;;46.63;28.65;;;;;;;;;;5095560;28;20075;-79
2022/05/06 05:06:58;;;;;;;54.60;30.77;;;;;;;;;;5096428;28;20403;-79
2022/05/06 05:09:24;;;;;;;61.53;34.78;;;;;;;;;;5097370;28;20543;-80
2022/05/06 05:11:51;;;;;;;55.88;32.55;;;;;;;;;;5097178;28;20043;-80
2022/05/06 05:14:17;;;;;;;46.38;27.52;;;;;;;;;;5096031;28;20376;-80
2022/05/06 05:16:43;;;;;;;41.92;27.65;;;;;;;;;;5079841;28;20039;-80
2022/05/06 05:19:10;;;;;;;40.05;25.52;;;;;;;;;;5092649;28;20044;-80
2022/05/06 05:21:36;;;;;;;41.70;26.10;;;;;;;;;;5084471;28;20043;-80
2022/05/06 05:24:03;;;;;;;42.33;26.77;;;;;;;;;;5076173;28;20040;-79
2022/05/06 05:26:29;;;;;;;43.90;26.73;;;;;;;;;;5093103;28;20046;-79
2022/05/06 05:28:55;;;;;;;41.42;26.40;;;;;;;;;;5097466;28;20043;-79
2022/05/06 05:31:22;;;;;;;38.67;25.05;;;;;;;;;;5094027;28;20047;-80
2022/05/06 05:33:49;;;;;;;41.15;24.63;;;;;;;;;;5108771;28;20590;-80
2022/05/06 05:36:15;;;;;;;41.38;24.80;;;;;;;;;;5100122;28;20039;-80
2022/05/06 05:38:41;;;;;;;39.08;24.55;;;;;;;;;;5093228;28;20066;-80
2022/05/06 05:41:07;;;;;;;52.80;27.33;;;;;;;;;;5096513;28;20032;-80
2022/05/06 05:49:03;;;;;;;59.58;28.50;;;;;;;;;;5089683;28;20116;-79
2022/05/06 05:51:29;;;;;;;49.25;26.90;;;;;;;;;;5088399;28;20484;-79
2022/05/06 05:53:55;;;;;;;48.78;26.35;;;;;;;;;;5094889;28;20035;-79
2022/05/06 05:56:21;;;;;;;47.50;26.25;;;;;;;;;;5090655;28;20559;-79
2022/05/06 05:58:50;;;;;;;39.15;23.48;;;;;;;;;;5096589;28;20047;-79
2022/05/06 06:01:16;;;;;;;43.15;25.65;;;;;;;;;;5080602;28;20035;-80
2022/05/06 06:03:42;;;;;;;41.03;24.80;;;;;;;;;;5083147;28;20047;-80
2022/05/06 06:06:08;;;;;;;41.60;24.27;;;;;;;;;;5096778;28;20564;-80
2022/05/06 06:08:35;;;;;;;48.25;26.73;;;;;;;;;;5088470;28;20410;-81
2022/05/06 06:11:02;;;;;;;56.85;29.75;;;;;;;;;;5097069;28;20486;-81
2022/05/06 06:13:30;;;;;;;50.13;28.80;;;;;;;;;;5096098;28;20051;-81
2022/05/06 06:15:56;;;;;;;55.55;28.55;;;;;;;;;;5076225;28;20409;-80
2022/05/06 06:18:26;;;;;;;60.50;31.55;;;;;;;;;;5093332;28;20521;-81
2022/05/06 06:20:56;;;;;;;44.10;27.52;;;;;;;;;;5076399;28;20042;-80
2022/05/06 06:23:23;;;;;;;49.67;28.55;;;;;;;;;;5093854;28;20123;-80
2022/05/06 06:25:49;;;;;;;47.00;27.98;;;;;;;;;;5092450;28;20518;-81
2022/05/06 06:28:16;;;;;;;62.75;29.95;;;;;;;;;;5075752;28;20692;-80
2022/05/06 06:30:42;;;;;;;50.63;29.75;;;;;;;;;;5089489;28;20032;-81
2022/05/06 06:33:09;;;;;;;54.80;31.48;;;;;;;;;;5093179;28;20046;-80
2022/05/06 06:35:35;;;;;;;61.30;34.35;;;;;;;;;;5102143;28;20395;-81
2022/05/06 06:38:01;;;;;;;60.65;34.40;;;;;;;;;;5099836;28;20047;-80
2022/05/06 06:40:27;;;;;;;56.75;33.63;;;;;;;;;;5093624;28;20529;-80
2022/05/06 06:42:53;;;;;;;55.60;33.95;;;;;;;;;;5095418;28;20044;-81
2022/05/06 06:45:20;;;;;;;51.05;32.10;;;;;;;;;;5094770;28;20092;-81
2022/05/06 06:47:46;;;;;;;58.53;33.80;;;;;;;;;;5095029;28;20035;-80
2022/05/06 06:50:12;;;;;;;53.03;32.67;;;;;;;;;;5086513;28;20494;-81
2022/05/06 06:52:38;;;;;;;54.05;32.08;;;;;;;;;;5094718;28;20096;-81
2022/05/06 06:55:04;;;;;;;49.63;30.98;;;;;;;;;;5077347;28;20254;-80
2022/05/06 06:57:31;;;;;;;55.13;33.00;;;;;;;;;;5099619;28;20044;-81
2022/05/06 06:59:57;;;;;;;54.63;31.23;;;;;;;;;;5083709;28;20043;-81
2022/05/06 07:02:23;;;;;;;59.67;31.05;;;;;;;;;;5104979;28;20046;-79
2022/05/06 07:04:51;;;;;;;53.60;31.23;;;;;;;;;;5076067;28;20094;-81
2022/05/06 07:12:47;;;;;;;58.55;33.30;;;;;;;;;;5112627;27;20088;-81
2022/05/06 07:15:13;;;;;;;58.47;34.33;;;;;;;;;;5087440;28;20040;-81
2022/05/06 07:17:39;;;;;;;56.90;33.58;;;;;;;;;;5100352;28;20090;-81
2022/05/06 07:20:05;;;;;;;55.83;33.22;;;;;;;;;;5096021;28;20084;-81
2022/05/06 07:22:31;;;;;;;56.20;34.13;;;;;;;;;;5076719;28;20079;-78
2022/05/06 07:24:57;;;;;;;60.65;37.05;;;;;;;;;;5109172;28;20051;-79
2022/05/06 07:27:25;;;;;;;62.10;36.47;;;;;;;;;;5109756;28;20403;-80
2022/05/06 07:29:51;;;;;;;55.15;33.63;;;;;;;;;;5108592;28;20047;-80
2022/05/06 07:32:18;;;;;;;60.95;36.42;;;;;;;;;;5089897;28;20111;-80
2022/05/06 07:34:44;;;;;;;59.42;33.70;;;;;;;;;;5057404;28;20051;-79
2022/05/06 07:37:10;;;;;;;58.47;34.03;;;;;;;;;;5071141;28;20512;-79
2022/05/06 07:39:36;;;;;;;60.88;34.08;;;;;;;;;;5067142;28;20467;-81
2022/05/06 07:42:02;;;;;;;57.60;34.85;;;;;;;;;;5105995;28;20233;-80
2022/05/06 07:44:28;;;;;;;60.30;34.88;;;;;;;;;;5054903;28;20040;-80
2022/05/06 07:46:55;;;;;;;54.28;33.47;;;;;;;;;;5105681;28;20123;-80
2022/05/06 07:49:23;;;;;;;48.90;30.75;;;;;;;;;;5102342;28;20499;-80
2022/05/06 07:51:49;;;;;;;54.08;32.95;;;;;;;;;;5054470;28;20036;-79
2022/05/06 07:54:15;;;;;;;50.78;31.20;;;;;;;;;;5054876;28;20040;-80
2022/05/06 07:56:42;;;;;;;49.63;32.35;;;;;;;;;;5083079;28;20118;-79
2022/05/06 07:59:08;;;;;;;49.08;31.08;;;;;;;;;;5062754;28;20037;-77
2022/05/06 08:07:08;;;;;;;46.35;28.08;;;;;;;;;;5107572;27;20062;-80
2022/05/06 08:09:35;;;;;;;43.25;26.83;;;;;;;;;;5079686;28;20044;-80
2022/05/06 08:12:04;;;;;;;45.22;26.02;;;;;;;;;;5113323;27;20511;-81
2022/05/06 08:14:30;;;;;;;41.33;25.85;;;;;;;;;;5077230;28;20046;-81
2022/05/06 08:16:57;;;;;;;42.65;25.15;;;;;;;;;;5067090;28;20372;-81
2022/05/06 08:19:23;;;;;;;38.17;24.10;;;;;;;;;;5066915;28;20109;-81
2022/05/06 08:21:49;;;;;;;44.35;25.88;;;;;;;;;;5073364;28;20461;-80
2022/05/06 08:24:16;;;;;;;41.58;26.00;;;;;;;;;;5069462;28;20040;-80
2022/05/06 08:26:42;;;;;;;33.47;21.92;;;;;;;;;;5072345;28;20040;-78
2022/05/06 08:29:08;;;;;;;34.70;22.73;;;;;;;;;;5068233;28;20040;-80
2022/05/06 08:31:37;;;;;;;32.08;21.80;;;;;;;;;;5067136;28;20399;-79
2022/05/06 08:34:11;;;;;;;34.33;21.85;;;;;;;;;;5083505;28;20039;-79
2022/05/06 08:36:39;;;;;;;29.70;18.75;;;;;;;;;;5090285;28;20051;-80
2022/05/06 08:39:05;;;;;;;30.90;19.45;;;;;;;;;;5074095;28;20035;-81
2022/05/06 08:41:32;;;;;;;33.33;18.63;;;;;;;;;;5088786;28;20555;-80
2022/05/06 08:43:58;;;;;;;25.17;17.35;;;;;;;;;;5073732;28;20121;-82
2022/05/06 08:51:59;;;;;;;22.58;13.13;;;;;;;;;;5076507;28;20040;-81
2022/05/06 08:54:26;;;;;;;18.80;12.75;;;;;;;;;;5071639;28;20066;-81
2022/05/06 08:56:54;;;;;;;17.48;11.60;;;;;;;;;;5075304;28;20122;-82
2022/05/06 08:59:21;;;;;;;16.88;11.35;;;;;;;;;;5093675;28;20082;-82
2022/05/06 09:01:47;;;;;;;17.48;11.85;;;;;;;;;;5092038;28;20066;-83
2022/05/06 09:04:13;;;;;;;16.88;12.07;;;;;;;;;;5073488;28;20155;-82
2022/05/06 09:06:39;;;;;;;15.30;10.77;;;;;;;;;;5090800;28;20411;-82
2022/05/06 09:09:06;;;;;;;15.18;10.90;;;;;;;;;;5082751;28;20399;-82
2022/05/06 09:16:39;;;;;;;12.95;9.20;;;;;;;;;;5084731;28;20047;-81
2022/05/06 09:17:20;;;;;;;13.25;9.70;;;;;;;;;;5087587;28;20092;-81
2022/05/06 09:19:46;;;;;;;13.48;8.38;;;;;;;;;;5084717;28;20042;-81
2022/05/06 09:22:13;;;;;;;12.95;9.63;;;;;;;;;;5063798;28;20040;-82
2022/05/06 09:24:40;;;;;;;14.25;9.63;;;;;;;;;;5073651;28;20371;-82
2022/05/06 09:27:13;;;;;;;13.50;9.85;;;;;;;;;;5070524;28;20067;-82
2022/05/06 09:29:50;;;;;;;12.90;8.38;;;;;;;;;;5070360;28;20042;-82
2022/05/06 09:32:17;;;;;;;12.68;9.48;;;;;;;;;;5089177;28;20032;-83
2022/05/06 09:34:44;;;;;;;12.45;9.02;;;;;;;;;;5072533;28;20048;-82
2022/05/06 09:37:11;;;;;;;12.60;8.85;;;;;;;;;;5088652;28;20054;-84
2022/05/06 09:39:40;;;;;;;11.18;8.23;;;;;;;;;;5071451;28;20039;-83
2022/05/06 09:42:07;;;;;;;16.23;8.73;;;;;;;;;;5088822;28;20093;-83
2022/05/06 09:44:34;;;;;;;10.82;7.97;;;;;;;;;;5072178;28;20044;-83
2022/05/06 09:47:20;;;;;;;10.48;7.22;;;;;;;;;;5088698;28;20032;-81
2022/05/06 09:49:46;;;;;;;9.57;6.68;;;;;;;;;;5079008;28;20035;-82
2022/05/06 09:52:13;;;;;;;9.65;7.00;;;;;;;;;;5095107;28;20040;-82
2022/05/06 09:54:42;;;;;;;9.50;6.50;;;;;;;;;;5079090;28;20063;-82
2022/05/06 09:57:13;;;;;;;9.50;6.28;;;;;;;;;;5077704;28;20042;-81
2022/05/06 09:59:39;;;;;;;9.38;6.47;;;;;;;;;;5090971;28;20051;-80
2022/05/06 10:02:05;;;;;;;8.63;5.93;;;;;;;;;;5094126;28;20042;-83
2022/05/06 10:04:31;;;;;;;8.32;5.50;;;;;;;;;;5077181;28;20122;-81
2022/05/06 10:07:01;;;;;;;8.38;5.43;;;;;;;;;;5076736;28;20160;-82
2022/05/06 10:09:28;;;;;;;8.80;5.90;;;;;;;;;;5094250;28;20046;-82
2022/05/06 10:11:55;;;;;;;8.52;5.45;;;;;;;;;;5093934;28;20067;-81
2022/05/06 10:14:22;;;;;;;9.50;6.20;;;;;;;;;;5093878;28;20123;-82
2022/05/06 10:16:48;;;;;;;9.05;6.50;;;;;;;;;;5094124;28;20521;-84
2022/05/06 10:19:28;;;;;;;9.45;6.60;;;;;;;;;;5094131;28;20058;-82
2022/05/06 10:21:55;;;;;;;7.95;5.90;;;;;;;;;;5094456;28;20089;-81
2022/05/06 10:24:21;;;;;;;8.00;5.57;;;;;;;;;;5094346;28;20108;-81
2022/05/06 10:26:49;;;;;;;8.25;5.85;;;;;;;;;;5076872;28;20521;-80
2022/05/06 10:35:02;;;;;;;8.45;5.35;;;;;;;;;;5099079;28;20521;-81
2022/05/06 10:37:44;;;;;;;8.30;5.70;;;;;;;;;;5093613;28;20059;-79
2022/05/06 10:40:36;;;;;;;9.00;6.72;;;;;;;;;;5093566;28;20136;-80
2022/05/06 10:43:04;;;;;;;8.90;6.60;;;;;;;;;;5105795;28;20059;-82
2022/05/06 10:45:33;;;;;;;8.88;6.03;;;;;;;;;;5093246;28;20082;-83
2022/05/06 10:48:00;;;;;;;7.45;5.43;;;;;;;;;;5118583;27;20086;-81
2022/05/06 10:50:29;;;;;;;8.98;5.57;;;;;;;;;;5110577;28;20032;-81
2022/05/06 10:52:56;;;;;;;8.48;5.75;;;;;;;;;;5077589;28;20046;-81
2022/05/06 10:55:23;;;;;;;9.48;5.65;;;;;;;;;;5106853;27;20502;-81
2022/05/06 10:57:49;;;;;;;7.90;5.47;;;;;;;;;;5109899;28;20144;-83
2022/05/06 11:00:16;;;;;;;8.57;5.22;;;;;;;;;;5109006;28;20509;-82
2022/05/06 11:02:42;;;;;;;9.00;4.90;;;;;;;;;;5109605;28;20437;-82
2022/05/06 11:05:09;;;;;;;8.05;5.68;;;;;;;;;;5096836;28;20101;-80
2022/05/06 11:07:37;;;;;;;8.13;4.90;;;;;;;;;;5084978;28;20042;-80
2022/05/06 11:10:09;;;;;;;7.85;5.07;;;;;;;;;;5109886;28;20035;-82
2022/05/06 11:12:41;;;;;;;14.07;5.70;;;;;;;;;;5126773;27;20035;-82
2022/05/06 11:15:09;;;;;;;8.65;5.43;;;;;;;;;;5097503;28;20047;-83
2022/05/06 11:17:36;;;;;;;8.68;4.70;;;;;;;;;;5110360;28;20046;-83
2022/05/06 11:20:03;;;;;;;6.60;4.45;;;;;;;;;;5096490;28;20048;-83
2022/05/06 11:22:33;;;;;;;6.00;3.63;;;;;;;;;;5092083;28;20737;-82
2022/05/06 11:25:00;;;;;;;6.93;3.90;;;;;;;;;;5092567;28;20418;-82
2022/05/06 11:27:27;;;;;;;6.63;3.67;;;;;;;;;;5119200;27;20066;-82
2022/05/06 11:29:57;;;;;;;6.53;3.30;;;;;;;;;;5079226;28;20118;-82
2022/05/06 11:32:24;;;;;;;6.32;3.33;;;;;;;;;;5108243;28;20039;-80
2022/05/06 11:34:56;;;;;;;8.35;3.10;;;;;;;;;;5101150;27;20048;-81
2022/05/06 11:37:23;;;;;;;5.28;3.20;;;;;;;;;;5095895;28;20048;-82
2022/05/06 11:39:49;;;;;;;5.35;2.97;;;;;;;;;;5074655;28;20036;-80
2022/05/06 11:42:20;;;;;;;5.93;3.17;;;;;;;;;;5080734;28;20292;-82
2022/05/06 11:47:40;;;;;;;5.97;2.90;;;;;;;;;;5106476;28;20134;-82
2022/05/06 11:50:06;;;;;;;5.95;3.10;;;;;;;;;;5106426;28;20042;-81
2022/05/06 11:52:33;;;;;;;4.93;2.90;;;;;;;;;;5108616;28;20123;-81
2022/05/06 11:54:59;;;;;;;5.15;2.80;;;;;;;;;;5114751;27;20043;-79
2022/05/06 11:57:26;;;;;;;7.85;3.22;;;;;;;;;;5095521;28;20047;-83
2022/05/06 11:59:52;;;;;;;5.80;3.15;;;;;;;;;;5088935;28;20436;-82
2022/05/06 12:02:18;;;;;;;5.72;2.45;;;;;;;;;;5091520;28;20075;-82
2022/05/06 12:04:44;;;;;;;5.95;1.60;;;;;;;;;;5117611;27;20126;-81
2022/05/06 12:07:10;;;;;;;4.93;2.13;;;;;;;;;;5085419;28;20126;-84
2022/05/06 12:09:43;;;;;;;4.20;1.88;;;;;;;;;;5106366;28;20396;-82
2022/05/06 12:12:10;;;;;;;4.28;2.90;;;;;;;;;;5112724;27;20486;-83
2022/05/06 12:14:40;;;;;;;7.60;3.00;;;;;;;;;;5099974;28;20518;-83
2022/05/06 12:17:10;;;;;;;5.70;3.08;;;;;;;;;;5105525;28;20054;-83
2022/05/06 12:19:40;;;;;;;5.72;2.92;;;;;;;;;;5091549;28;22549;-81
2022/05/06 12:22:13;;;;;;;5.25;2.75;;;;;;;;;;5071815;28;20044;-82
2022/05/06 12:24:45;;;;;;;7.95;2.85;;;;;;;;;;5113213;27;20044;-81
2022/05/06 12:27:11;;;;;;;6.45;2.47;;;;;;;;;;5089828;28;20067;-80
2022/05/06 12:29:38;;;;;;;6.93;3.35;;;;;;;;;;5093707;28;20044;-82
2022/05/06 12:32:05;;;;;;;7.05;3.65;;;;;;;;;;5112460;27;20090;-83
2022/05/06 12:34:31;;;;;;;6.70;3.80;;;;;;;;;;5103100;28;20055;-81
2022/05/06 12:37:17;;;;;;;9.55;3.40;;;;;;;;;;5087699;28;20055;-83
2022/05/06 12:39:45;;;;;;;6.53;4.40;;;;;;;;;;5068844;28;20083;-82
2022/05/06 12:42:12;;;;;;;6.05;3.75;;;;;;;;;;5069565;28;20050;-82
2022/05/06 12:44:39;;;;;;;7.63;4.00;;;;;;;;;;5087676;28;20047;-82
2022/05/06 12:47:12;;;;;;;5.88;3.67;;;;;;;;;;5088469;28;20492;-82
2022/05/06 12:49:41;;;;;;;8.48;3.42;;;;;;;;;;5084274;28;20056;-81
2022/05/06 12:52:11;;;;;;;4.15;2.50;;;;;;;;;;5082462;28;20283;-80
2022/05/06 12:54:38;;;;;;;6.03;3.42;;;;;;;;;;5088018;28;20157;-81
2022/05/06 12:57:04;;;;;;;5.28;3.22;;;;;;;;;;5071018;28;20055;-82
2022/05/06 12:59:31;;;;;;;9.57;3.50;;;;;;;;;;5085028;28;20047;-81
2022/05/06 13:01:57;;;;;;;4.57;2.83;;;;;;;;;;5056055;28;20040;-82
2022/05/06 13:04:23;;;;;;;6.15;3.50;;;;;;;;;;5084966;28;20079;-82
2022/05/06 13:06:49;;;;;;;6.32;3.10;;;;;;;;;;5087647;28;20093;-81
2022/05/06 13:09:16;;;;;;;5.18;3.10;;;;;;;;;;5070588;28;20395;-81
2022/05/06 13:11:42;;;;;;;4.65;2.40;;;;;;;;;;5084584;28;20040;-80
2022/05/06 13:14:08;;;;;;;4.95;2.60;;;;;;;;;;5087756;28;20059;-84
2022/05/06 13:16:35;;;;;;;5.80;3.00;;;;;;;;;;5087365;28;20048;-80
2022/05/06 13:19:02;;;;;;;5.05;2.67;;;;;;;;;;5087764;28;20522;-82
2022/05/06 13:21:29;;;;;;;7.90;2.80;;;;;;;;;;5073986;28;20040;-80
2022/05/06 13:23:55;;;;;;;6.05;2.42;;;;;;;;;;5085549;28;20445;-80
2022/05/06 13:26:21;;;;;;;5.63;2.58;;;;;;;;;;5058554;28;20074;-82
2022/05/06 13:28:47;;;;;;;5.70;2.92;;;;;;;;;;5074736;28;20499;-82
2022/05/06 13:31:14;;;;;;;6.32;2.53;;;;;;;;;;5062670;28;20360;-82
2022/05/06 13:33:40;;;;;;;5.93;3.20;;;;;;;;;;5086867;28;20046;-83
2022/05/06 13:36:06;;;;;;;4.35;2.55;;;;;;;;;;5094263;28;20063;-82
2022/05/06 13:38:33;;;;;;;8.50;4.07;;;;;;;;;;5077927;28;20501;-82
2022/05/06 13:40:59;;;;;;;6.80;3.20;;;;;;;;;;5068053;28;20036;-83
2022/05/06 13:43:25;;;;;;;7.97;3.00;;;;;;;;;;5058375;28;20445;-82
2022/05/06 13:45:51;;;;;;;7.90;3.47;;;;;;;;;;5076396;28;20349;-81
2022/05/06 13:48:17;;;;;;;8.88;3.92;;;;;;;;;;5077706;28;20032;-84
2022/05/06 13:50:44;;;;;;;5.88;3.75;;;;;;;;;;5070118;28;20032;-81
2022/05/06 13:53:10;;;;;;;6.78;3.97;;;;;;;;;;5088666;28;20675;-82
2022/05/06 13:59:07;;;;;;;7.75;4.35;;;;;;;;;;5094014;28;20058;-82
2022/05/06 14:01:08;;;;;;;6.80;3.80;;;;;;;;;;5066692;28;20535;-82
2022/05/06 14:03:34;;;;;;;6.43;3.25;;;;;;;;;;5076105;28;20520;-83
2022/05/06 14:06:01;;;;;;;9.05;3.53;;;;;;;;;;5070477;28;20119;-83
2022/05/06 14:08:27;;;;;;;6.88;4.25;;;;;;;;;;5057146;28;20066;-80
2022/05/06 14:10:54;;;;;;;8.60;3.17;;;;;;;;;;5065090;28;20032;-80
2022/05/06 14:13:21;;;;;;;6.30;3.53;;;;;;;;;;5059758;28;20039;-83
2022/05/06 14:15:47;;;;;;;6.03;3.13;;;;;;;;;;5077262;28;20039;-83
2022/05/06 14:18:13;;;;;;;5.88;2.67;;;;;;;;;;5093579;28;20075;-83
2022/05/06 14:20:39;;;;;;;7.40;3.00;;;;;;;;;;5090375;28;20096;-80
2022/05/06 14:23:05;;;;;;;5.03;2.67;;;;;;;;;;5093922;28;20039;-81
2022/05/06 14:25:32;;;;;;;5.88;3.30;;;;;;;;;;5093997;28;20093;-81
2022/05/06 14:27:58;;;;;;;5.55;2.70;;;;;;;;;;5091031;28;20472;-81
2022/05/06 14:30:24;;;;;;;6.25;2.70;;;;;;;;;;5081132;28;20035;-84
2022/05/06 14:32:50;;;;;;;9.57;2.78;;;;;;;;;;5076865;28;20084;-82
2022/05/06 14:35:16;;;;;;;7.15;3.00;;;;;;;;;;5089099;28;20637;-80
2022/05/06 14:37:43;;;;;;;7.05;2.97;;;;;;;;;;5080265;28;20088;-81
2022/05/06 14:40:09;;;;;;;7.68;3.67;;;;;;;;;;5086532;28;20032;-83
2022/05/06 14:42:36;;;;;;;6.10;3.33;;;;;;;;;;5072937;28;20044;-83
2022/05/06 14:45:02;;;;;;;5.82;3.58;;;;;;;;;;5072986;28;20419;-80
2022/05/06 14:47:28;;;;;;;8.32;4.82;;;;;;;;;;5069318;28;20031;-82
2022/05/06 14:49:54;;;;;;;10.90;4.85;;;;;;;;;;5079242;28;20576;-82
2022/05/06 14:52:23;;;;;;;8.07;4.57;;;;;;;;;;5064560;28;20040;-81
2022/05/06 14:54:56;;;;;;;7.88;4.45;;;;;;;;;;5090060;28;20388;-81
2022/05/06 14:57:23;;;;;;;8.48;4.22;;;;;;;;;;5073005;28;20505;-82
2022/05/06 14:59:49;;;;;;;10.52;5.00;;;;;;;;;;5071550;28;20067;-82
2022/05/06 15:02:16;;;;;;;11.13;5.55;;;;;;;;;;5086834;28;20080;-82
2022/05/06 15:04:42;;;;;;;9.85;5.10;;;;;;;;;;5089880;28;20158;-82
2022/05/06 15:07:08;;;;;;;11.02;5.60;;;;;;;;;;5072597;28;20075;-83
2022/05/06 15:09:34;;;;;;;9.00;4.90;;;;;;;;;;5087434;28;20044;-82
2022/05/06 15:12:00;;;;;;;13.20;5.95;;;;;;;;;;5087877;28;20043;-82
2022/05/06 15:14:31;;;;;;;9.05;4.97;;;;;;;;;;5072526;28;20040;-81
2022/05/06 15:17:04;;;;;;;9.10;4.95;;;;;;;;;;5089179;28;20258;-82